Time;durP1;ratioP1;P1;durP2;ratioP2;P2;SDS_P1;SDS_P2;PMS_P1;PMS_P2;Temp;Humidity;BMP_temperature;BMP_pressure;BME280_temperature;BME280_humidity;BME280_pressure;Samples;Min_cycle;Max_cycle;Signal;HPM_P1;HPM_P2
2022/07/29 00:02:23;;;;;;;5.97;2.33;;;20.40;45.80;;;;;;4993925;28;20049;-70
2022/07/29 00:04:48;;;;;;;7.47;2.67;;;20.30;45.90;;;;;;4978787;28;20038;-70
2022/07/29 00:07:14;;;;;;;4.93;1.90;;;20.30;45.80;;;;;;4984487;28;20037;-70
2022/07/29 00:09:39;;;;;;;7.47;2.72;;;20.30;45.70;;;;;;4981995;28;20029;-70
2022/07/29 00:12:05;;;;;;;4.07;2.28;;;20.30;45.70;;;;;;4972742;28;20022;-70
2022/07/29 00:14:31;;;;;;;4.68;2.30;;;20.20;45.70;;;;;;4988762;28;20042;-70
2022/07/29 00:16:56;;;;;;;9.52;2.30;;;20.20;45.80;;;;;;5009476;28;20474;-70
2022/07/29 00:19:22;;;;;;;4.75;2.20;;;20.20;45.80;;;;;;4974272;28;20485;-70
2022/07/29 00:21:47;;;;;;;4.32;2.00;;;20.10;45.90;;;;;;5001962;28;20148;-70
2022/07/29 00:24:13;;;;;;;3.47;2.10;;;20.20;46.10;;;;;;4995969;28;20093;-70
2022/07/29 00:26:38;;;;;;;6.13;2.10;;;20.10;46.20;;;;;;4972198;28;20045;-71
2022/07/29 00:29:04;;;;;;;3.47;1.95;;;20.20;46.40;;;;;;5023780;28;20040;-70
2022/07/29 00:31:29;;;;;;;5.43;2.10;;;20.10;46.40;;;;;;4990752;28;20134;-70
2022/07/29 00:33:55;;;;;;;3.20;2.15;;;20.10;46.60;;;;;;5001372;28;20658;-70
2022/07/29 00:36:21;;;;;;;4.72;2.28;;;20.10;46.60;;;;;;4984136;28;20078;-71
2022/07/29 00:38:50;;;;;;;5.38;2.22;;;20.00;46.60;;;;;;4995044;28;20037;-70
2022/07/29 00:41:16;;;;;;;3.75;1.80;;;20.00;46.90;;;;;;4977864;28;20043;-73
2022/07/29 00:43:42;;;;;;;3.35;1.73;;;20.00;46.90;;;;;;5006463;28;20068;-70
2022/07/29 00:46:07;;;;;;;3.53;2.03;;;19.90;46.90;;;;;;5011732;28;20630;-70
2022/07/29 00:48:33;;;;;;;4.03;1.98;;;19.90;47.00;;;;;;5004954;28;20056;-71
2022/07/29 00:50:59;;;;;;;5.13;2.38;;;19.90;47.10;;;;;;4985794;28;20467;-70
2022/07/29 00:53:25;;;;;;;3.60;2.03;;;19.90;47.20;;;;;;5000238;28;20541;-71
2022/07/29 00:55:50;;;;;;;4.22;2.08;;;19.90;47.30;;;;;;5008351;28;20124;-70
2022/07/29 00:58:16;;;;;;;12.40;2.30;;;19.90;47.30;;;;;;5013704;28;20045;-70
2022/07/29 01:00:42;;;;;;;5.38;2.00;;;19.90;47.40;;;;;;4956802;28;20096;-70
2022/07/29 01:03:07;;;;;;;4.03;2.42;;;19.80;47.50;;;;;;4993600;28;20507;-70
2022/07/29 01:05:33;;;;;;;4.25;1.92;;;19.80;47.60;;;;;;5008614;28;20037;-72
2022/07/29 01:07:59;;;;;;;3.53;2.13;;;19.80;47.60;;;;;;5003456;28;20530;-72
2022/07/29 01:10:24;;;;;;;2.08;1.80;;;19.80;47.70;;;;;;4973027;28;20034;-71
2022/07/29 01:12:51;;;;;;;3.00;1.98;;;19.80;47.80;;;;;;4974517;28;20062;-70
2022/07/29 01:15:16;;;;;;;5.15;2.30;;;19.70;47.90;;;;;;4985146;28;20043;-70
2022/07/29 01:18:13;;;;;;;4.28;1.75;;;19.80;48.00;;;;;;5000855;28;20049;-70
2022/07/29 01:20:57;;;;;;;7.15;1.98;;;19.70;48.20;;;;;;5003414;28;20091;-70
2022/07/29 01:23:53;;;;;;;4.18;2.08;;;19.80;48.10;;;;;;4992088;28;20650;-72
2022/07/29 01:26:46;;;;;;;5.15;1.90;;;19.70;49.00;;;;;;4953388;28;20534;-70
2022/07/29 01:29:12;;;;;;;4.13;2.17;;;19.70;48.40;;;;;;4993718;28;20041;-70
2022/07/29 01:31:53;;;;;;;4.07;2.45;;;19.60;48.10;;;;;;5002086;28;20048;-71
2022/07/29 01:34:25;;;;;;;2.65;1.77;;;19.60;48.40;;;;;;4983157;28;20334;-71
2022/07/29 01:36:55;;;;;;;7.07;2.08;;;19.60;48.40;;;;;;5006016;28;20045;-71
2022/07/29 01:39:33;;;;;;;6.72;2.17;;;19.60;48.40;;;;;;4975161;28;20040;-70
2022/07/29 01:42:02;;;;;;;2.83;1.85;;;19.60;48.50;;;;;;4982303;28;20034;-70
2022/07/29 01:44:35;;;;;;;4.55;2.55;;;19.50;48.50;;;;;;4997403;28;20048;-70
2022/07/29 01:47:06;;;;;;;3.17;1.90;;;19.40;48.60;;;;;;5003750;28;20080;-69
2022/07/29 01:49:33;;;;;;;5.22;1.90;;;19.40;48.60;;;;;;4978298;28;20128;-69
2022/07/29 01:52:01;;;;;;;3.78;1.85;;;19.40;48.70;;;;;;5001868;28;20581;-70
2022/07/29 01:54:43;;;;;;;3.13;1.73;;;19.40;48.80;;;;;;4986341;28;20099;-70
2022/07/29 01:57:09;;;;;;;3.63;1.88;;;19.40;48.90;;;;;;4979725;28;20049;-70
2022/07/29 01:59:35;;;;;;;3.88;2.33;;;19.40;48.90;;;;;;5011632;28;20125;-70
2022/07/29 02:02:00;;;;;;;4.10;2.13;;;19.30;48.90;;;;;;4967751;28;20474;-70
2022/07/29 02:04:26;;;;;;;3.22;2.03;;;19.30;48.90;;;;;;4985854;28;20037;-71
2022/07/29 02:06:52;;;;;;;3.70;2.40;;;19.30;49.10;;;;;;4973311;28;20030;-71
2022/07/29 02:09:18;;;;;;;2.20;1.73;;;19.30;49.30;;;;;;4978550;28;20029;-70
2022/07/29 02:11:48;;;;;;;5.93;1.90;;;19.20;49.20;;;;;;4964961;28;20042;-72
2022/07/29 02:14:14;;;;;;;5.63;2.30;;;19.20;49.40;;;;;;4983973;28;20100;-70
2022/07/29 02:16:39;;;;;;;5.90;2.20;;;19.20;49.40;;;;;;4981785;28;20045;-70
2022/07/29 02:19:05;;;;;;;6.28;2.20;;;19.10;49.40;;;;;;4994240;28;20027;-70
2022/07/29 02:21:30;;;;;;;5.85;2.25;;;19.10;49.40;;;;;;5007100;28;20104;-70
2022/07/29 02:23:57;;;;;;;4.53;2.10;;;19.00;49.50;;;;;;4985929;28;20104;-70
2022/07/29 02:26:23;;;;;;;4.80;2.22;;;18.90;49.70;;;;;;4969081;28;20392;-71
2022/07/29 02:28:50;;;;;;;3.00;2.22;;;18.90;49.70;;;;;;4958534;28;20034;-70
2022/07/29 02:31:15;;;;;;;2.78;1.80;;;18.80;49.80;;;;;;4983175;28;22383;-70
2022/07/29 02:33:41;;;;;;;4.93;1.90;;;18.90;50.00;;;;;;4962736;28;20495;-70
2022/07/29 02:36:06;;;;;;;5.63;2.15;;;18.80;50.10;;;;;;4977939;28;20053;-70
2022/07/29 02:38:50;;;;;;;3.13;2.03;;;18.80;50.10;;;;;;4980993;28;20188;-72
2022/07/29 02:41:19;;;;;;;3.92;1.60;;;18.80;50.20;;;;;;4987988;28;20037;-71
2022/07/29 02:43:46;;;;;;;3.47;2.13;;;18.70;50.20;;;;;;4972005;28;20584;-71
2022/07/29 02:46:14;;;;;;;3.83;1.77;;;18.60;50.30;;;;;;4957124;28;20519;-70
2022/07/29 02:48:48;;;;;;;3.75;1.85;;;18.60;50.40;;;;;;4991779;28;20129;-71
2022/07/29 02:51:19;;;;;;;3.17;2.00;;;18.50;50.40;;;;;;4979544;28;20037;-70
2022/07/29 02:53:45;;;;;;;5.33;2.70;;;18.50;50.50;;;;;;4995776;28;20572;-69
2022/07/29 02:56:12;;;;;;;4.75;2.10;;;18.50;50.50;;;;;;4997931;28;20052;-70
2022/07/29 02:58:39;;;;;;;3.30;2.08;;;18.50;50.60;;;;;;4989104;28;20037;-68
2022/07/29 03:01:12;;;;;;;2.88;1.77;;;18.40;50.60;;;;;;4967474;28;20052;-71
2022/07/29 03:03:37;;;;;;;4.35;2.00;;;18.40;50.80;;;;;;5012272;28;20510;-68
2022/07/29 03:06:03;;;;;;;4.20;2.00;;;18.30;50.80;;;;;;4989845;28;20126;-70
2022/07/29 03:08:29;;;;;;;3.72;2.10;;;18.30;50.90;;;;;;4977636;28;20038;-69
2022/07/29 03:10:54;;;;;;;5.43;1.85;;;18.30;51.00;;;;;;4984135;28;20411;-69
2022/07/29 03:13:20;;;;;;;2.60;1.70;;;18.20;51.10;;;;;;4984060;28;20033;-69
2022/07/29 03:15:45;;;;;;;5.15;2.03;;;18.20;51.10;;;;;;4984962;28;20056;-69
2022/07/29 03:18:11;;;;;;;3.47;2.03;;;18.20;51.20;;;;;;4997755;28;20053;-69
2022/07/29 03:20:37;;;;;;;3.05;1.92;;;18.20;51.20;;;;;;4961137;28;20451;-68
2022/07/29 03:23:04;;;;;;;3.95;1.60;;;18.20;51.40;;;;;;4971482;28;20124;-69
2022/07/29 03:25:29;;;;;;;2.20;1.67;;;18.10;51.40;;;;;;4980486;28;20069;-70
2022/07/29 03:27:56;;;;;;;6.28;2.20;;;18.10;51.40;;;;;;4985714;28;20045;-69
2022/07/29 03:30:21;;;;;;;3.70;2.17;;;18.10;51.50;;;;;;4980499;28;20034;-70
2022/07/29 03:32:47;;;;;;;3.25;2.05;;;18.10;51.60;;;;;;5001143;28;20045;-71
2022/07/29 03:35:13;;;;;;;4.78;1.73;;;18.10;51.60;;;;;;4966161;28;20048;-69
2022/07/29 03:37:38;;;;;;;3.42;1.90;;;18.10;51.60;;;;;;4989992;28;20597;-69
2022/07/29 03:40:06;;;;;;;4.70;2.00;;;18.10;51.70;;;;;;5001011;28;20642;-69
2022/07/29 03:42:33;;;;;;;2.75;1.83;;;18.10;51.80;;;;;;4980684;28;20041;-71
2022/07/29 03:44:59;;;;;;;2.10;1.80;;;18.10;51.90;;;;;;4953470;28;20096;-70
2022/07/29 03:47:26;;;;;;;5.30;2.28;;;18.10;51.90;;;;;;4983531;28;20113;-72
2022/07/29 03:49:53;;;;;;;4.25;2.08;;;18.10;52.00;;;;;;4976133;28;20040;-71
2022/07/29 03:52:19;;;;;;;6.50;2.38;;;18.10;52.00;;;;;;4988047;28;20042;-70
2022/07/29 03:54:45;;;;;;;7.55;2.00;;;18.10;52.00;;;;;;5001851;28;20065;-71
2022/07/29 03:57:11;;;;;;;2.58;1.92;;;18.00;52.00;;;;;;4991157;28;20041;-70
2022/07/29 03:59:37;;;;;;;3.75;2.00;;;18.10;52.10;;;;;;4994142;28;20049;-70
2022/07/29 04:02:05;;;;;;;4.07;1.70;;;18.00;52.20;;;;;;4968347;28;20069;-71
2022/07/29 04:04:34;;;;;;;3.55;1.77;;;18.00;52.20;;;;;;4979804;28;20061;-70
2022/07/29 04:07:00;;;;;;;4.13;1.70;;;18.00;53.00;;;;;;5005125;28;20079;-69
2022/07/29 04:09:25;;;;;;;3.80;1.70;;;18.00;52.30;;;;;;4981794;28;20121;-69
2022/07/29 04:11:51;;;;;;;5.88;2.17;;;18.00;52.30;;;;;;4945943;28;20594;-69
2022/07/29 04:14:16;;;;;;;4.78;2.13;;;18.00;52.40;;;;;;4979149;28;20481;-70
2022/07/29 04:16:42;;;;;;;2.97;1.73;;;18.00;52.50;;;;;;4964537;28;20079;-69
2022/07/29 04:19:07;;;;;;;4.30;1.75;;;18.00;52.50;;;;;;4989165;28;20125;-71
2022/07/29 04:21:40;;;;;;;4.10;1.90;;;18.00;52.50;;;;;;4996207;28;20117;-70
2022/07/29 04:24:06;;;;;;;5.20;1.80;;;18.10;52.60;;;;;;4980864;28;20044;-70
2022/07/29 04:26:31;;;;;;;4.95;1.70;;;18.10;52.60;;;;;;4978440;28;20058;-70
2022/07/29 04:28:57;;;;;;;2.72;1.75;;;18.10;52.50;;;;;;4992498;28;20029;-69
2022/07/29 04:31:22;;;;;;;2.45;1.90;;;18.10;52.50;;;;;;4992716;28;20044;-69
2022/07/29 04:33:48;;;;;;;2.72;1.65;;;18.10;52.50;;;;;;4983548;28;20033;-70
2022/07/29 04:36:13;;;;;;;2.58;1.63;;;18.10;52.50;;;;;;5001955;28;20095;-70
2022/07/29 04:38:39;;;;;;;5.90;2.17;;;18.20;52.50;;;;;;4978194;28;20038;-69
2022/07/29 04:41:06;;;;;;;5.15;2.03;;;18.20;52.50;;;;;;4988279;28;20037;-69
2022/07/29 04:43:33;;;;;;;4.70;2.00;;;18.30;52.60;;;;;;4981084;28;20461;-71
2022/07/29 04:45:58;;;;;;;3.75;1.88;;;18.30;52.60;;;;;;4983585;28;20033;-71
2022/07/29 04:48:24;;;;;;;8.35;1.85;;;18.30;52.50;;;;;;4976972;28;20434;-70
2022/07/29 04:50:49;;;;;;;3.13;1.70;;;18.30;52.60;;;;;;4982276;28;20562;-70
2022/07/29 04:53:15;;;;;;;2.67;1.73;;;18.30;52.60;;;;;;4994075;28;20042;-69
2022/07/29 04:55:40;;;;;;;2.70;1.73;;;18.30;52.60;;;;;;4995494;28;20049;-70
2022/07/29 04:58:07;;;;;;;2.45;1.60;;;18.30;52.50;;;;;;4985455;28;20514;-69
2022/07/29 05:00:32;;;;;;;2.97;1.63;;;18.30;52.70;;;;;;4997717;28;20125;-71
2022/07/29 05:02:58;;;;;;;3.13;1.95;;;18.30;52.60;;;;;;4984318;28;20074;-70
2022/07/29 05:05:23;;;;;;;2.35;1.60;;;18.30;52.60;;;;;;4987579;28;20079;-70
2022/07/29 05:07:49;;;;;;;4.68;2.25;;;18.40;52.70;;;;;;5001024;28;20065;-71
2022/07/29 05:10:14;;;;;;;4.85;1.85;;;18.40;52.90;;;;;;4950424;28;20069;-72
2022/07/29 05:12:40;;;;;;;1.98;1.52;;;18.40;53.00;;;;;;4992294;28;20033;-70
2022/07/29 05:15:06;;;;;;;3.17;2.03;;;18.40;52.80;;;;;;4972224;28;20034;-69
2022/07/29 05:17:31;;;;;;;2.38;1.58;;;18.40;52.90;;;;;;5000883;28;20558;-69
2022/07/29 05:19:57;;;;;;;4.13;1.90;;;18.40;52.90;;;;;;5016058;28;20038;-70
2022/07/29 05:22:23;;;;;;;2.17;1.52;;;18.50;53.00;;;;;;4964291;28;20038;-71
2022/07/29 05:24:48;;;;;;;8.93;2.25;;;18.50;53.00;;;;;;4981842;28;20044;-71
2022/07/29 05:27:14;;;;;;;5.18;2.00;;;18.50;52.90;;;;;;4990387;28;20515;-70
2022/07/29 05:29:39;;;;;;;3.70;1.70;;;18.60;52.90;;;;;;4988295;28;20707;-70
2022/07/29 05:32:05;;;;;;;5.43;1.73;;;18.60;52.90;;;;;;4993559;28;20594;-70
2022/07/29 05:34:31;;;;;;;7.18;1.75;;;18.60;52.80;;;;;;4999889;28;20805;-70
2022/07/29 05:36:56;;;;;;;4.05;1.58;;;18.70;52.80;;;;;;5013664;28;20043;-71
2022/07/29 05:39:22;;;;;;;3.25;1.90;;;18.70;52.60;;;;;;4990405;28;20629;-70
2022/07/29 05:41:48;;;;;;;7.40;1.83;;;18.80;52.50;;;;;;4972445;28;20043;-71
2022/07/29 05:44:13;;;;;;;5.65;2.03;;;18.80;52.50;;;;;;4997083;28;20053;-71
2022/07/29 05:46:39;;;;;;;5.63;2.55;;;18.90;52.50;;;;;;4977401;28;20045;-70
2022/07/29 05:49:06;;;;;;;10.05;2.28;;;18.90;52.30;;;;;;4984418;28;20447;-71
2022/07/29 05:51:32;;;;;;;8.40;2.13;;;19.00;52.30;;;;;;4997343;28;20033;-70
2022/07/29 05:53:57;;;;;;;9.23;2.50;;;19.00;52.20;;;;;;4988838;28;20030;-69
2022/07/29 05:56:23;;;;;;;2.42;1.90;;;19.10;52.00;;;;;;4969299;28;20088;-70
2022/07/29 05:58:48;;;;;;;2.83;1.73;;;19.20;52.00;;;;;;4992172;28;20068;-70
2022/07/29 06:01:14;;;;;;;5.03;1.45;;;19.30;51.90;;;;;;4995073;28;20030;-70
2022/07/29 06:03:41;;;;;;;6.95;2.10;;;19.30;51.60;;;;;;4988712;28;20030;-71
2022/07/29 06:06:07;;;;;;;5.07;1.60;;;19.40;51.40;;;;;;4988319;28;20037;-70
2022/07/29 06:08:33;;;;;;;5.85;2.03;;;19.40;51.30;;;;;;4994310;28;20042;-70
2022/07/29 06:10:59;;;;;;;4.43;1.88;;;19.50;51.10;;;;;;4981406;28;20038;-71
2022/07/29 06:13:25;;;;;;;2.78;1.63;;;19.60;51.10;;;;;;4986368;28;20029;-72
2022/07/29 06:15:50;;;;;;;3.35;1.58;;;19.70;51.00;;;;;;4980077;28;20522;-69
2022/07/29 06:18:16;;;;;;;3.78;1.63;;;19.80;50.90;;;;;;5004098;28;20506;-72
2022/07/29 06:20:41;;;;;;;6.47;2.53;;;19.90;50.80;;;;;;4986958;28;20037;-71
2022/07/29 06:23:07;;;;;;;4.88;2.00;;;20.00;50.60;;;;;;4985141;28;20087;-70
2022/07/29 06:25:35;;;;;;;4.38;1.60;;;20.20;50.50;;;;;;4967177;28;20041;-70
2022/07/29 06:28:00;;;;;;;8.38;2.20;;;20.30;50.20;;;;;;5000251;28;20033;-70
2022/07/29 06:30:26;;;;;;;3.22;1.90;;;20.40;50.00;;;;;;4990619;28;20033;-72
2022/07/29 06:32:52;;;;;;;2.30;1.73;;;20.60;49.70;;;;;;5003438;28;20541;-71
2022/07/29 06:35:17;;;;;;;9.50;2.25;;;20.70;49.50;;;;;;4994296;28;20052;-70
2022/07/29 06:37:43;;;;;;;4.00;1.73;;;20.90;49.40;;;;;;5002771;28;20050;-70
2022/07/29 06:42:53;;;;;;;4.78;1.80;;;21.10;48.80;;;;;;4997964;28;20048;-70
2022/07/29 06:45:19;;;;;;;3.88;2.25;;;21.30;48.70;;;;;;4974976;28;20029;-71
2022/07/29 06:47:44;;;;;;;3.97;1.50;;;21.40;48.50;;;;;;4979574;28;20065;-70
2022/07/29 06:50:12;;;;;;;7.75;1.90;;;21.60;48.40;;;;;;4998479;28;20794;-71
2022/07/29 06:52:38;;;;;;;6.25;1.67;;;21.70;48.10;;;;;;4996414;28;20045;-70
2022/07/29 06:55:04;;;;;;;2.83;1.77;;;21.90;48.00;;;;;;5018515;28;20150;-71
2022/07/29 06:57:29;;;;;;;9.07;2.10;;;22.10;47.80;;;;;;4974318;28;20053;-72
2022/07/29 06:59:56;;;;;;;6.78;1.98;;;22.20;47.50;;;;;;4986686;28;20038;-70
2022/07/29 07:02:22;;;;;;;6.47;1.58;;;22.40;47.20;;;;;;4999127;28;20034;-71
2022/07/29 07:04:47;;;;;;;4.15;1.98;;;22.60;47.00;;;;;;4976830;28;20044;-71
2022/07/29 07:07:13;;;;;;;5.03;1.60;;;22.80;46.70;;;;;;4988676;28;20562;-70
2022/07/29 07:09:38;;;;;;;6.57;1.95;;;22.90;46.40;;;;;;4984092;28;20030;-70
2022/07/29 07:12:04;;;;;;;6.05;1.70;;;23.10;46.20;;;;;;4970323;28;20110;-70
2022/07/29 07:14:30;;;;;;;6.68;1.70;;;23.40;46.00;;;;;;5005339;28;20546;-71
2022/07/29 07:16:55;;;;;;;6.45;1.50;;;23.50;45.70;;;;;;4996606;28;20046;-72
2022/07/29 07:19:21;;;;;;;3.80;1.80;;;23.60;45.40;;;;;;4991738;28;20069;-71
2022/07/29 07:21:46;;;;;;;5.63;1.80;;;23.70;45.20;;;;;;5003417;28;20022;-71
2022/07/29 07:24:12;;;;;;;8.50;2.53;;;23.90;45.00;;;;;;5001777;28;20384;-71
2022/07/29 07:26:39;;;;;;;2.72;1.67;;;24.00;44.90;;;;;;4981573;28;20132;-71
2022/07/29 07:29:05;;;;;;;4.20;1.52;;;24.10;44.80;;;;;;4969390;28;20029;-70
2022/07/29 07:31:30;;;;;;;5.47;1.67;;;24.20;44.70;;;;;;4972459;28;20040;-71
2022/07/29 07:33:56;;;;;;;5.28;1.50;;;24.30;44.50;;;;;;4992554;28;20498;-70
2022/07/29 07:36:22;;;;;;;5.07;1.88;;;24.40;44.40;;;;;;4983532;28;20022;-70
2022/07/29 07:38:47;;;;;;;6.45;2.22;;;24.40;44.10;;;;;;4986726;28;20224;-71
2022/07/29 07:41:13;;;;;;;6.20;1.70;;;24.50;44.00;;;;;;4999826;28;20156;-70
2022/07/29 07:43:39;;;;;;;6.03;1.85;;;24.50;43.90;;;;;;4985935;28;20042;-71
2022/07/29 07:46:04;;;;;;;5.38;1.67;;;24.60;43.80;;;;;;4963276;28;20088;-70
2022/07/29 07:48:30;;;;;;;4.50;1.40;;;24.60;43.50;;;;;;4985730;28;20069;-73
2022/07/29 07:50:55;;;;;;;2.53;1.77;;;24.60;43.40;;;;;;5000547;28;20037;-71
2022/07/29 07:53:21;;;;;;;9.85;2.55;;;24.70;43.30;;;;;;5000889;28;20053;-71
2022/07/29 07:55:47;;;;;;;13.45;2.50;;;24.70;43.30;;;;;;4989560;28;20041;-71
2022/07/29 07:58:12;;;;;;;7.20;1.70;;;24.80;43.70;;;;;;4992933;28;20056;-70
2022/07/29 08:00:38;;;;;;;5.55;2.38;;;24.80;45.10;;;;;;4998946;28;20045;-70
2022/07/29 08:03:03;;;;;;;4.95;1.50;;;24.80;45.90;;;;;;4998653;28;20091;-71
2022/07/29 08:05:29;;;;;;;5.88;1.65;;;24.80;46.60;;;;;;4974164;28;20042;-71
2022/07/29 08:07:54;;;;;;;3.47;1.63;;;24.80;47.00;;;;;;4983934;28;20764;-71
2022/07/29 08:13:08;;;;;;;7.85;2.20;;;24.70;47.60;;;;;;4980388;28;20133;-71
2022/07/29 08:15:34;;;;;;;3.58;2.15;;;24.60;47.90;;;;;;4998047;28;20066;-72
2022/07/29 08:17:59;;;;;;;6.95;1.95;;;24.60;48.40;;;;;;4978426;28;20157;-71
2022/07/29 08:20:25;;;;;;;6.10;1.80;;;24.60;48.90;;;;;;4963972;28;20037;-71
2022/07/29 08:22:51;;;;;;;6.18;1.77;;;24.60;49.00;;;;;;4971446;28;20035;-71
2022/07/29 08:25:20;;;;;;;5.00;2.10;;;24.70;49.00;;;;;;4971648;28;21510;-71
2022/07/29 08:27:46;;;;;;;5.50;1.77;;;24.70;49.20;;;;;;4983275;28;20050;-71
2022/07/29 08:30:11;;;;;;;5.78;1.55;;;24.80;49.20;;;;;;4972951;28;20109;-71
2022/07/29 08:32:37;;;;;;;9.30;2.47;;;24.80;49.30;;;;;;4971349;28;20606;-71
2022/07/29 08:35:03;;;;;;;6.78;1.70;;;24.80;49.10;;;;;;5012756;28;20034;-71
2022/07/29 08:37:28;;;;;;;7.82;1.63;;;24.80;49.00;;;;;;4979462;28;20042;-71
2022/07/29 08:39:54;;;;;;;11.50;2.10;;;24.80;49.00;;;;;;4989379;28;20033;-70
2022/07/29 08:42:19;;;;;;;8.10;2.08;;;24.90;48.90;;;;;;4989284;28;20041;-71
2022/07/29 08:44:45;;;;;;;9.05;2.35;;;24.90;48.70;;;;;;5008104;28;20065;-71
2022/07/29 08:47:13;;;;;;;6.82;2.10;;;25.00;48.50;;;;;;4975665;28;20030;-70
2022/07/29 08:49:39;;;;;;;3.95;1.80;;;25.10;48.10;;;;;;4984301;28;20034;-70
2022/07/29 08:52:04;;;;;;;3.75;1.60;;;25.20;47.90;;;;;;5004260;28;20601;-71
2022/07/29 08:54:30;;;;;;;7.30;2.20;;;25.20;47.70;;;;;;4984568;28;20836;-70
2022/07/29 08:56:55;;;;;;;5.35;1.95;;;25.40;47.60;;;;;;4974142;28;20124;-70
2022/07/29 08:59:22;;;;;;;2.65;1.73;;;25.50;47.50;;;;;;4993728;28;20108;-70
2022/07/29 09:01:48;;;;;;;5.95;1.80;;;25.60;47.40;;;;;;5003696;28;20049;-71
2022/07/29 09:04:13;;;;;;;4.05;1.63;;;25.70;47.20;;;;;;4980668;28;20045;-70
2022/07/29 09:06:46;;;;;;;2.70;1.58;;;25.80;46.90;;;;;;4999972;28;20033;-70
2022/07/29 09:09:13;;;;;;;2.20;2.00;;;26.00;46.50;;;;;;4985956;28;20698;-72
2022/07/29 09:11:39;;;;;;;3.08;1.52;;;26.10;46.10;;;;;;4980305;28;20038;-71
2022/07/29 09:14:05;;;;;;;2.45;1.70;;;26.30;45.80;;;;;;4971567;28;20034;-71
2022/07/29 09:16:53;;;;;;;7.28;1.90;;;26.50;45.50;;;;;;4989353;28;20030;-71
2022/07/29 09:19:27;;;;;;;2.30;1.77;;;26.70;44.80;;;;;;5016909;28;20030;-69
2022/07/29 09:22:00;;;;;;;2.63;1.73;;;26.80;44.50;;;;;;4990796;28;20084;-70
2022/07/29 09:24:38;;;;;;;5.65;1.73;;;26.90;44.50;;;;;;4966249;28;20137;-74
2022/07/29 09:27:08;;;;;;;3.58;2.03;;;26.90;44.10;;;;;;4982418;28;20122;-71
2022/07/29 09:29:33;;;;;;;3.00;1.60;;;26.90;43.90;;;;;;4982227;28;20131;-71
2022/07/29 09:31:59;;;;;;;2.70;1.45;;;26.90;43.90;;;;;;4984785;28;20523;-71
2022/07/29 09:34:26;;;;;;;6.10;1.80;;;26.80;43.80;;;;;;4993598;28;20022;-70
2022/07/29 09:36:52;;;;;;;4.40;1.73;;;26.90;43.80;;;;;;4988154;28;20135;-73
2022/07/29 09:39:32;;;;;;;5.60;1.75;;;26.90;43.60;;;;;;4998569;28;20040;-70
2022/07/29 09:41:59;;;;;;;5.50;1.92;;;26.90;43.40;;;;;;4969595;28;20490;-71
2022/07/29 09:44:25;;;;;;;3.53;1.60;;;26.90;43.40;;;;;;4995922;28;20029;-71
2022/07/29 09:46:58;;;;;;;6.93;1.75;;;26.90;43.30;;;;;;5004943;28;20335;-71
2022/07/29 09:49:24;;;;;;;5.55;2.15;;;26.90;43.20;;;;;;4998267;28;20088;-71
2022/07/29 09:52:11;;;;;;;2.72;1.40;;;26.90;43.40;;;;;;4980723;28;20037;-72
2022/07/29 09:54:36;;;;;;;5.47;1.80;;;26.90;43.30;;;;;;4986361;28;20061;-72
2022/07/29 09:57:04;;;;;;;4.20;1.55;;;27.00;43.30;;;;;;5008733;28;20034;-72
2022/07/29 09:59:29;;;;;;;5.93;1.60;;;27.10;43.10;;;;;;4992434;28;20056;-71
2022/07/29 10:01:55;;;;;;;3.17;1.95;;;27.20;42.90;;;;;;4947266;28;20042;-72
2022/07/29 10:04:20;;;;;;;2.10;1.60;;;27.30;42.70;;;;;;4996316;28;20022;-72
2022/07/29 10:06:59;;;;;;;2.65;1.60;;;27.40;42.60;;;;;;4998614;28;20033;-71
2022/07/29 10:09:25;;;;;;;7.05;2.50;;;27.40;42.50;;;;;;4957918;28;20428;-71
2022/07/29 10:12:23;;;;;;;4.22;1.70;;;27.40;42.60;;;;;;4973479;28;20034;-71
2022/07/29 10:14:49;;;;;;;4.25;1.75;;;27.40;42.10;;;;;;4954102;28;20044;-71
2022/07/29 10:17:15;;;;;;;2.90;1.95;;;27.50;42.40;;;;;;5010476;28;20030;-71
2022/07/29 10:19:42;;;;;;;3.10;1.50;;;27.50;42.30;;;;;;4983191;28;20180;-71
2022/07/29 10:22:08;;;;;;;5.32;1.60;;;27.60;42.20;;;;;;4975792;28;20048;-71
2022/07/29 10:24:35;;;;;;;3.83;1.73;;;27.70;42.10;;;;;;5006890;28;20405;-71
2022/07/29 10:27:01;;;;;;;4.78;1.58;;;27.70;41.90;;;;;;5017435;28;20060;-71
2022/07/29 10:29:27;;;;;;;4.55;1.50;;;27.90;42.00;;;;;;5012123;28;20049;-70
2022/07/29 10:32:07;;;;;;;8.35;2.05;;;28.10;42.00;;;;;;5005149;28;20040;-71
2022/07/29 10:34:51;;;;;;;4.45;1.58;;;28.30;41.80;;;;;;4987916;28;20060;-70
2022/07/29 10:37:33;;;;;;;5.20;1.90;;;28.70;41.60;;;;;;4977151;28;20049;-70
2022/07/29 10:41:26;;;;;;;6.25;1.70;;;29.00;41.50;;;;;;4987280;28;20072;-71
2022/07/29 10:42:52;;;;;;;3.45;1.52;;;29.30;41.10;;;;;;4976539;28;20038;-72
2022/07/29 10:45:18;;;;;;;3.55;1.45;;;29.50;40.80;;;;;;4968367;28;20049;-71
2022/07/29 10:47:43;;;;;;;3.75;1.42;;;29.70;40.40;;;;;;4968005;28;20065;-71
2022/07/29 10:50:09;;;;;;;3.50;1.60;;;29.90;40.20;;;;;;4958560;28;20045;-71
2022/07/29 10:53:04;;;;;;;2.63;1.85;;;30.10;39.90;;;;;;4971716;28;20053;-71
2022/07/29 10:55:39;;;;;;;3.45;1.42;;;30.30;39.30;;;;;;4974143;28;20045;-72
2022/07/29 10:58:13;;;;;;;5.05;1.63;;;30.60;39.20;;;;;;4991635;28;20127;-72
2022/07/29 11:00:38;;;;;;;3.92;1.42;;;30.70;38.70;;;;;;4990567;28;20037;-71
2022/07/29 11:03:04;;;;;;;3.65;1.48;;;30.80;38.60;;;;;;5014820;28;20030;-72
2022/07/29 11:05:31;;;;;;;3.50;1.95;;;30.70;38.30;;;;;;5003137;28;20040;-71
2022/07/29 11:08:18;;;;;;;4.28;1.70;;;30.80;38.20;;;;;;4997495;28;20061;-72
2022/07/29 11:10:44;;;;;;;2.20;1.42;;;30.90;38.20;;;;;;5008616;28;20084;-71
2022/07/29 11:13:09;;;;;;;5.53;1.83;;;31.10;38.10;;;;;;4979055;28;20126;-71
2022/07/29 11:15:58;;;;;;;3.28;1.50;;;31.20;37.90;;;;;;4983659;28;20124;-71
2022/07/29 11:18:23;;;;;;;3.20;1.85;;;31.30;36.60;;;;;;4967494;28;20053;-72
2022/07/29 11:20:50;;;;;;;9.07;1.90;;;31.30;37.30;;;;;;4984159;28;21097;-72
2022/07/29 11:23:28;;;;;;;3.67;1.55;;;31.40;37.30;;;;;;4983373;28;20050;-72
2022/07/29 11:26:16;;;;;;;2.55;1.63;;;31.60;37.20;;;;;;4964887;28;20148;-73
2022/07/29 11:28:52;;;;;;;1.92;1.75;;;31.90;37.30;;;;;;4994570;28;20041;-72
2022/07/29 11:31:39;;;;;;;2.85;1.45;;;32.20;36.40;;;;;;4969140;28;20133;-73
2022/07/29 11:34:36;;;;;;;3.28;1.58;;;32.60;36.10;;;;;;4984514;28;20535;-72
2022/07/29 11:39:34;;;;;;;3.40;1.90;;;33.10;35.80;;;;;;5007015;28;21397;-72
2022/07/29 11:42:24;;;;;;;3.47;1.83;;;33.30;35.50;;;;;;4973335;28;20563;-73
2022/07/29 11:44:56;;;;;;;4.82;1.52;;;33.60;34.90;;;;;;5005957;28;20029;-72
2022/07/29 11:47:22;;;;;;;4.40;1.77;;;33.80;34.80;;;;;;5008214;28;20038;-72
2022/07/29 11:49:47;;;;;;;3.13;1.60;;;34.00;34.80;;;;;;4978361;28;20048;-72
2022/07/29 11:52:13;;;;;;;1.67;1.20;;;34.10;34.50;;;;;;4971388;28;20033;-72
2022/07/29 11:54:39;;;;;;;2.70;1.63;;;34.20;34.20;;;;;;4969241;28;20060;-72
2022/07/29 11:57:06;;;;;;;2.83;1.90;;;34.40;33.90;;;;;;4967546;28;20102;-72
2022/07/29 11:59:32;;;;;;;2.90;1.75;;;34.50;33.50;;;;;;5003944;28;20036;-72
2022/07/29 12:02:00;;;;;;;3.13;1.60;;;34.60;33.30;;;;;;4980630;28;20029;-73
2022/07/29 12:04:29;;;;;;;3.38;1.73;;;34.70;33.20;;;;;;5006233;28;20363;-72
2022/07/29 12:06:56;;;;;;;1.50;1.33;;;34.90;33.10;;;;;;4995550;28;20086;-73
2022/07/29 12:09:22;;;;;;;3.17;1.60;;;35.10;33.10;;;;;;4996198;28;20115;-73
2022/07/29 12:11:48;;;;;;;1.75;1.65;;;35.20;32.90;;;;;;4972770;28;20022;-72
2022/07/29 12:14:29;;;;;;;2.35;1.50;;;35.40;32.70;;;;;;4981308;28;20499;-72
2022/07/29 12:16:54;;;;;;;3.92;1.48;;;35.60;32.10;;;;;;5000151;28;20079;-73
2022/07/29 12:19:20;;;;;;;4.50;1.70;;;35.70;32.50;;;;;;4969387;28;20036;-74
2022/07/29 12:21:54;;;;;;;3.00;1.60;;;35.80;32.30;;;;;;5000159;28;20533;-72
2022/07/29 12:24:20;;;;;;;4.25;1.80;;;36.00;32.00;;;;;;4980020;28;20029;-72
2022/07/29 12:26:53;;;;;;;3.95;1.58;;;36.20;32.00;;;;;;4963855;28;20601;-72
2022/07/29 12:29:18;;;;;;;6.05;2.00;;;36.30;31.40;;;;;;4969020;28;20038;-73
2022/07/29 12:31:44;;;;;;;2.45;1.60;;;36.40;31.30;;;;;;4966176;28;20030;-73
2022/07/29 12:34:13;;;;;;;2.63;1.40;;;36.50;31.10;;;;;;4967984;28;20050;-73
2022/07/29 12:36:40;;;;;;;3.33;1.77;;;36.40;30.90;;;;;;4943480;28;20049;-72
2022/07/29 12:39:05;;;;;;;2.38;1.80;;;36.40;30.70;;;;;;4968901;28;20050;-74
2022/07/29 12:41:31;;;;;;;2.88;1.40;;;36.30;30.70;;;;;;4984598;28;20061;-74
2022/07/29 12:43:57;;;;;;;2.72;1.70;;;36.30;30.80;;;;;;4989650;28;20050;-73
2022/07/29 12:46:22;;;;;;;2.33;1.48;;;36.20;30.80;;;;;;4960980;28;20123;-73
2022/07/29 12:48:54;;;;;;;6.13;1.70;;;36.20;30.70;;;;;;4989194;28;20054;-74
2022/07/29 12:51:32;;;;;;;1.88;1.52;;;36.20;30.70;;;;;;4989194;28;20034;-74
2022/07/29 12:54:04;;;;;;;4.80;1.67;;;36.10;30.60;;;;;;4966655;28;20092;-76
2022/07/29 12:56:29;;;;;;;3.58;1.45;;;36.10;30.60;;;;;;4998220;28;20022;-74
2022/07/29 12:58:55;;;;;;;5.05;1.40;;;36.00;30.60;;;;;;4986834;28;20038;-75